createdAt,value
2019-05-13T00:00:57.463Z,77.07
2019-05-13T00:03:26.880Z,76.74
2019-05-13T00:05:55.959Z,77.05
2019-05-13T00:08:25.344Z,76.27
2019-05-13T00:10:54.450Z,75.99
2019-05-13T00:13:23.832Z,75.80
2019-05-13T00:15:54.336Z,74.16
2019-05-13T00:18:23.743Z,76.68
2019-05-13T00:20:54.201Z,75.71
2019-05-13T00:23:23.538Z,75.07
2019-05-13T00:25:54.576Z,75.96
2019-05-13T00:28:24.116Z,75.88
2019-05-13T00:30:54.290Z,75.54
2019-05-13T00:33:24.383Z,74.67
2019-05-13T00:35:53.609Z,73.60
2019-05-13T00:38:24.599Z,74.39
2019-05-13T00:40:54.553Z,74.27
2019-05-13T00:43:24.509Z,74.01
2019-05-13T00:45:53.899Z,73.17
2019-05-13T00:48:23.455Z,74.04
2019-05-13T00:50:54.510Z,73.85
2019-05-13T00:53:23.853Z,74.46
2019-05-13T00:55:53.653Z,75.18
2019-05-13T00:58:24.134Z,73.57
2019-05-13T01:00:54.635Z,75.00
2019-05-13T01:03:26.305Z,73.85
2019-05-13T01:05:55.560Z,73.47
2019-05-13T01:08:25.912Z,74.20
2019-05-13T01:10:55.168Z,74.36
2019-05-13T01:13:43.188Z,75.59
2019-05-13T01:16:13.895Z,74.51
2019-05-13T01:18:43.252Z,74.29
2019-05-13T01:21:13.323Z,73.81
2019-05-13T01:23:43.859Z,72.60
2019-05-13T01:26:14.194Z,73.35
2019-05-13T01:28:43.797Z,73.24
2019-05-13T01:31:13.314Z,73.40
2019-05-13T01:33:44.515Z,72.50
2019-05-13T01:36:13.565Z,73.05
2019-05-13T01:38:43.612Z,72.10
2019-05-13T01:41:13.639Z,72.97
2019-05-13T01:43:44.100Z,72.61
2019-05-13T01:46:13.582Z,71.51
2019-05-13T01:48:44.232Z,71.45
2019-05-13T01:51:14.362Z,71.95
2019-05-13T01:53:44.172Z,72.21
2019-05-13T01:56:14.242Z,71.51
2019-05-13T01:58:44.945Z,71.80
2019-05-13T02:01:14.773Z,71.74
2019-05-13T02:03:44.356Z,71.28
2019-05-13T02:06:14.234Z,72.12
2019-05-13T02:08:44.056Z,71.79
2019-05-13T02:11:13.409Z,71.70
2019-05-13T02:13:44.671Z,73.49
2019-05-13T02:16:14.557Z,72.50
2019-05-13T02:18:44.398Z,72.74
2019-05-13T02:21:13.954Z,73.67
2019-05-13T02:23:44.346Z,72.99
2019-05-13T02:26:13.730Z,72.82
2019-05-13T02:28:43.606Z,73.54
2019-05-13T02:31:18.851Z,72.86
2019-05-13T02:33:43.717Z,72.32
2019-05-13T02:36:13.513Z,73.93
2019-05-13T02:38:43.009Z,72.57
2019-05-13T02:41:13.357Z,73.51
2019-05-13T02:43:45.335Z,72.47
2019-05-13T02:46:14.320Z,72.20
2019-05-13T02:48:43.405Z,73.20
2019-05-13T02:51:12.668Z,72.65
2019-05-13T02:53:43.717Z,72.65
2019-05-13T02:56:12.402Z,73.23
2019-05-13T02:58:42.837Z,74.06
2019-05-13T03:01:12.674Z,73.37
2019-05-13T03:03:44.423Z,73.13
2019-05-13T03:06:14.391Z,73.02
2019-05-13T03:08:49.461Z,73.60
2019-05-13T03:11:14.390Z,72.66
2019-05-13T03:13:43.555Z,72.51
2019-05-13T03:16:27.447Z,72.42
2019-05-13T03:18:56.497Z,72.18
2019-05-13T03:21:25.599Z,72.12
2019-05-13T03:23:55.064Z,71.82
2019-05-13T03:26:24.303Z,71.68
2019-05-13T03:28:54.416Z,71.53
2019-05-13T03:31:26.525Z,70.95
2019-05-13T03:33:56.394Z,70.47
2019-05-13T03:36:26.488Z,70.81
2019-05-13T03:39:05.621Z,69.99
2019-05-13T03:41:28.867Z,69.56
2019-05-13T03:44:02.352Z,70.60
2019-05-13T03:46:33.316Z,69.64
2019-05-13T03:49:02.897Z,69.37
2019-05-13T03:51:32.791Z,69.91
2019-05-13T03:54:03.074Z,68.56
2019-05-13T03:56:33.004Z,69.28
2019-05-13T03:59:02.886Z,68.42
2019-05-13T04:01:32.785Z,68.31
2019-05-13T04:04:03.263Z,68.63
2019-05-13T04:06:32.816Z,68.62
2019-05-13T04:09:20.562Z,68.62
2019-05-13T04:11:33.139Z,68.47
2019-05-13T04:14:03.234Z,68.24
2019-05-13T04:16:32.471Z,66.72
2019-05-13T04:19:02.732Z,66.19
2019-05-13T04:21:33.776Z,66.86
2019-05-13T04:24:03.937Z,66.18
2019-05-13T04:26:33.279Z,65.87
2019-05-13T04:29:03.369Z,64.45
2019-05-13T04:31:33.492Z,64.37
2019-05-13T04:34:03.558Z,63.66
2019-05-13T04:36:32.749Z,64.47
2019-05-13T04:39:03.234Z,63.55
2019-05-13T04:41:33.526Z,63.67
2019-05-13T04:44:03.137Z,63.96
2019-05-13T04:46:32.922Z,63.34
2019-05-13T04:49:02.531Z,62.62
2019-05-13T04:51:32.855Z,63.04
2019-05-13T04:54:03.118Z,62.80
2019-05-13T04:56:33.079Z,62.98
2019-05-13T04:59:03.198Z,62.55
2019-05-13T05:02:13.126Z,62.03
2019-05-13T05:04:59.119Z,61.70
2019-05-13T05:07:45.454Z,61.21
2019-05-13T05:10:38.792Z,61.18
2019-05-13T05:13:42.857Z,62.01
2019-05-13T05:16:33.706Z,62.33
2019-05-13T05:19:14.943Z,61.55
2019-05-13T05:22:03.221Z,62.23
2019-05-13T05:25:01.579Z,61.30
2019-05-13T05:28:11.043Z,62.00
2019-05-13T05:31:13.328Z,62.73
2019-05-13T05:34:11.625Z,62.18
2019-05-13T05:37:11.852Z,62.84
2019-05-13T05:39:42.066Z,61.87
2019-05-13T05:42:13.502Z,62.45
2019-05-13T05:44:43.423Z,62.51
2019-05-13T05:47:13.326Z,61.41
2019-05-13T05:49:43.703Z,60.22
2019-05-13T05:52:13.244Z,60.81
2019-05-13T05:54:42.543Z,60.18
2019-05-13T05:57:12.310Z,59.91
2019-05-13T05:59:42.652Z,58.88
2019-05-13T06:02:12.313Z,58.68
2019-05-13T06:04:43.009Z,58.56
2019-05-13T06:07:12.696Z,58.27
2019-05-13T06:09:42.443Z,59.19
2019-05-13T06:12:12.416Z,59.41
2019-05-13T06:14:42.756Z,59.63
2019-05-13T06:17:11.764Z,59.68
2019-05-13T06:19:43.172Z,60.02
2019-05-13T06:22:12.501Z,60.36
2019-05-13T06:24:42.767Z,60.60
2019-05-13T06:27:11.946Z,60.80
2019-05-13T06:29:42.391Z,60.50
2019-05-13T06:32:18.988Z,60.93
2019-05-13T06:34:44.091Z,60.96
2019-05-13T06:37:13.314Z,61.24
2019-05-13T06:39:48.208Z,61.61
2019-05-13T06:42:17.185Z,61.07
2019-05-13T06:44:46.209Z,61.52
2019-05-13T06:47:15.293Z,60.96
2019-05-13T06:49:44.343Z,60.73
2019-05-13T06:52:13.845Z,61.29
2019-05-13T06:54:43.090Z,60.88
2019-05-13T06:57:13.624Z,60.81
2019-05-13T06:59:43.010Z,60.19
2019-05-13T07:02:12.524Z,59.71
2019-05-13T07:04:42.024Z,58.45
2019-05-13T07:07:16.685Z,58.08
2019-05-13T07:09:42.886Z,57.31
2019-05-13T07:12:12.076Z,56.71
2019-05-13T07:14:42.022Z,56.73
2019-05-13T07:17:12.308Z,56.55
2019-05-13T07:19:42.349Z,55.43
2019-05-13T07:22:13.317Z,55.24
2019-05-13T07:24:42.507Z,54.87
2019-05-13T07:27:12.307Z,54.30
2019-05-13T07:29:42.504Z,53.55
2019-05-13T07:32:12.108Z,52.85
2019-05-13T07:34:43.820Z,52.80
2019-05-13T07:37:13.095Z,52.53
2019-05-13T07:39:42.155Z,52.08
2019-05-13T07:42:12.359Z,52.20
2019-05-13T07:44:41.905Z,52.02
2019-05-13T07:47:11.751Z,52.39
2019-05-13T07:49:42.103Z,51.60
2019-05-13T07:52:12.028Z,52.05
2019-05-13T07:54:41.949Z,51.85
2019-05-13T07:57:12.263Z,52.63
2019-05-13T07:59:42.049Z,52.36
2019-05-13T08:02:12.608Z,53.34
2019-05-13T08:04:42.239Z,53.19
2019-05-13T08:07:12.180Z,53.34
2019-05-13T08:09:42.380Z,53.50
2019-05-13T08:12:14.338Z,53.71
2019-05-13T08:14:43.590Z,54.98
2019-05-13T08:17:13.275Z,54.21
2019-05-13T08:19:44.671Z,53.78
2019-05-13T08:22:14.093Z,53.39
2019-05-13T08:24:44.172Z,53.49
2019-05-13T08:27:13.439Z,53.56
2019-05-13T08:29:42.765Z,53.51
2019-05-13T08:32:11.716Z,53.24
2019-05-13T08:34:41.734Z,52.40
2019-05-13T08:37:11.433Z,52.26
2019-05-13T08:39:42.029Z,51.97
2019-05-13T08:42:15.841Z,51.88
2019-05-13T08:44:42.204Z,51.90
2019-05-13T08:47:12.072Z,51.94
2019-05-13T08:49:42.534Z,52.93
2019-05-13T08:52:12.251Z,52.94
2019-05-13T08:54:41.997Z,53.30
2019-05-13T08:57:11.895Z,53.06
2019-05-13T08:59:42.386Z,53.58
2019-05-13T09:02:11.834Z,53.66
2019-05-13T09:04:42.181Z,53.70
2019-05-13T09:07:12.443Z,52.95
2019-05-13T09:09:42.747Z,52.45
2019-05-13T09:12:28.132Z,50.68
2019-05-13T09:14:43.765Z,49.85
2019-05-13T09:17:12.855Z,49.00
2019-05-13T09:19:42.237Z,48.73
2019-05-13T09:22:12.357Z,48.70
2019-05-13T09:24:42.860Z,48.89
2019-05-13T09:27:12.309Z,48.77
2019-05-13T09:29:43.150Z,48.66
2019-05-13T09:32:12.489Z,49.58
2019-05-13T09:34:43.426Z,49.41
2019-05-13T09:37:14.146Z,48.46
2019-05-13T09:39:44.845Z,47.11
2019-05-13T09:42:15.545Z,46.85
2019-05-13T09:44:47.715Z,45.77
2019-05-13T09:47:21.885Z,45.55
2019-05-13T09:49:54.559Z,45.22
2019-05-13T09:52:24.594Z,45.19
2019-05-13T09:54:55.295Z,45.39
2019-05-13T09:57:26.171Z,44.26
2019-05-13T09:59:56.761Z,44.52
2019-05-13T10:02:27.543Z,44.68
2019-05-13T10:04:58.314Z,44.75
2019-05-13T10:07:31.550Z,45.11
2019-05-13T10:10:01.893Z,45.59
2019-05-13T10:12:32.145Z,45.07
2019-05-13T10:15:02.613Z,44.75
2019-05-13T10:17:32.042Z,44.69
2019-05-13T10:20:01.151Z,44.62
2019-05-13T10:22:31.991Z,44.41
2019-05-13T10:25:02.617Z,44.53
2019-05-13T10:27:32.787Z,44.78
2019-05-13T10:30:02.856Z,46.26
2019-05-13T10:32:32.542Z,46.83
2019-05-13T10:35:03.537Z,47.48
2019-05-13T10:37:32.988Z,47.20
2019-05-13T10:40:02.700Z,46.30
2019-05-13T10:42:33.049Z,46.81
2019-05-13T10:45:02.778Z,46.79
2019-05-13T10:47:32.088Z,47.70
2019-05-13T10:50:02.820Z,47.92
2019-05-13T10:52:32.416Z,48.43
2019-05-13T10:55:02.163Z,48.30
2019-05-13T10:57:32.435Z,47.54
2019-05-13T11:00:03.282Z,47.79
2019-05-13T11:02:32.899Z,48.06
2019-05-13T11:05:03.216Z,48.22
2019-05-13T11:07:32.581Z,48.38
2019-05-13T11:10:02.385Z,47.72
2019-05-13T11:12:33.504Z,47.98
2019-05-13T11:15:03.427Z,45.93
2019-05-13T11:17:33.290Z,44.73
2019-05-13T11:20:03.502Z,44.13
2019-05-13T11:22:32.983Z,41.18
2019-05-13T11:25:02.712Z,38.66
2019-05-13T11:27:32.496Z,37.61
2019-05-13T11:30:06.391Z,37.22
2019-05-13T11:32:34.847Z,37.62
2019-05-13T11:35:04.247Z,37.27
2019-05-13T11:37:34.673Z,38.04
2019-05-13T11:40:03.922Z,38.69
2019-05-13T11:42:33.383Z,39.54
2019-05-13T11:45:02.582Z,39.52
2019-05-13T11:47:32.321Z,39.55
2019-05-13T11:50:02.483Z,37.12
2019-05-13T11:52:31.826Z,34.29
2019-05-13T11:55:02.659Z,32.28
2019-05-13T11:57:31.768Z,29.91
2019-05-13T12:00:02.540Z,28.06
2019-05-13T12:02:32.700Z,27.19
2019-05-13T12:05:03.888Z,27.53
2019-05-13T12:07:34.032Z,27.66
2019-05-13T12:10:05.084Z,28.21
2019-05-13T12:12:34.780Z,29.70
2019-05-13T12:15:26.487Z,30.72
2019-05-13T12:17:35.923Z,31.10
2019-05-13T12:20:05.378Z,31.52
2019-05-13T12:22:34.513Z,32.00
2019-05-13T12:25:03.940Z,31.29
2019-05-13T12:27:32.934Z,32.00
2019-05-13T12:30:03.249Z,33.12
2019-05-13T12:32:32.816Z,34.63
2019-05-13T12:35:03.874Z,35.06
2019-05-13T12:37:33.618Z,35.39
2019-05-13T12:40:03.724Z,35.61
2019-05-13T12:42:33.950Z,35.84
2019-05-13T12:45:09.904Z,36.28
2019-05-13T12:47:34.789Z,35.92
2019-05-13T12:50:04.088Z,36.70
2019-05-13T12:52:33.331Z,36.88
2019-05-13T12:55:03.534Z,37.97
2019-05-13T12:57:32.638Z,38.20
2019-05-13T13:00:02.739Z,37.77
2019-05-13T13:02:33.807Z,35.94
2019-05-13T13:05:15.742Z,36.31
2019-05-13T13:07:40.833Z,36.86
2019-05-13T13:10:04.294Z,38.02
2019-05-13T13:12:36.179Z,38.34
2019-05-13T13:15:31.861Z,38.49
2019-05-13T13:17:35.117Z,38.45
2019-05-13T13:20:09.054Z,36.09
2019-05-13T13:22:36.308Z,35.05
2019-05-13T13:25:06.394Z,33.86
2019-05-13T13:28:04.051Z,34.00
2019-05-13T13:30:08.641Z,34.24
2019-05-13T13:32:38.124Z,33.05
2019-05-13T13:35:07.955Z,31.48
2019-05-13T13:37:37.545Z,30.71
2019-05-13T13:40:07.024Z,31.19
2019-05-13T13:42:37.030Z,31.40
2019-05-13T13:45:06.502Z,31.92
2019-05-13T13:47:35.660Z,33.00
2019-05-13T13:50:05.185Z,33.92
2019-05-13T13:52:34.299Z,34.36
2019-05-13T13:55:08.592Z,34.98
2019-05-13T13:57:34.381Z,35.70
2019-05-13T14:00:34.681Z,36.08
2019-05-13T14:02:37.045Z,36.79
2019-05-13T14:05:07.152Z,37.42
2019-05-13T14:07:38.930Z,37.75
2019-05-13T14:10:07.454Z,37.26
2019-05-13T14:12:37.372Z,36.35
2019-05-13T14:15:08.716Z,34.20
2019-05-13T14:17:38.060Z,34.60
2019-05-13T14:20:07.353Z,35.59
2019-05-13T14:22:36.499Z,37.01
2019-05-13T14:25:06.206Z,38.37
2019-05-13T14:27:35.522Z,39.20
2019-05-13T14:30:05.455Z,39.52
2019-05-13T14:32:34.709Z,40.36
2019-05-13T14:35:03.958Z,41.04
2019-05-13T14:37:33.419Z,41.58
2019-05-13T14:40:02.691Z,41.89
2019-05-13T14:42:32.427Z,42.35
2019-05-13T14:45:02.101Z,42.73
2019-05-13T14:47:32.120Z,43.22
2019-05-13T14:50:02.115Z,43.64
2019-05-13T14:52:32.312Z,44.18
2019-05-13T14:55:02.331Z,44.46
2019-05-13T14:57:32.253Z,44.69
2019-05-13T15:00:02.600Z,44.91
2019-05-13T15:02:35.334Z,44.81
2019-05-13T15:05:02.990Z,44.86
2019-05-13T15:07:32.387Z,45.01
2019-05-13T15:10:02.489Z,45.08
2019-05-13T15:12:32.528Z,44.99
2019-05-13T15:15:03.016Z,44.93
2019-05-13T15:17:36.290Z,45.04
2019-05-13T15:20:06.105Z,44.71
2019-05-13T15:22:35.484Z,45.07
2019-05-13T15:25:05.098Z,45.90
2019-05-13T15:27:34.419Z,46.05
2019-05-13T15:30:16.819Z,46.10
2019-05-13T15:32:35.148Z,45.91
2019-05-13T15:35:05.808Z,46.34
2019-05-13T15:37:35.094Z,46.41
2019-05-13T15:40:06.221Z,46.31
2019-05-13T15:42:35.699Z,46.07
2019-05-13T15:45:05.434Z,46.11
2019-05-13T15:47:34.554Z,46.71
2019-05-13T15:50:03.703Z,46.25
2019-05-13T15:52:32.751Z,46.69
2019-05-13T15:55:01.809Z,46.88
2019-05-13T15:57:32.491Z,47.04
2019-05-13T16:00:02.062Z,47.35
2019-05-13T16:02:31.493Z,47.56
2019-05-13T16:05:04.820Z,47.76
2019-05-13T16:07:33.078Z,47.85
2019-05-13T16:10:02.135Z,47.93
2019-05-13T16:12:32.996Z,47.40
2019-05-13T16:15:02.328Z,47.60
2019-05-13T16:17:41.036Z,47.68
2019-05-13T16:20:02.707Z,47.85
2019-05-13T16:22:31.710Z,47.98
2019-05-13T16:25:01.653Z,47.88
2019-05-13T16:27:31.852Z,48.64
2019-05-13T16:30:02.448Z,48.89
2019-05-13T16:32:32.997Z,48.85
2019-05-13T16:35:02.994Z,49.23
2019-05-13T16:37:32.121Z,48.97
2019-05-13T16:40:03.087Z,49.05
2019-05-13T16:42:32.120Z,49.48
2019-05-13T16:45:01.340Z,49.75
2019-05-13T16:47:33.903Z,50.10
2019-05-13T16:50:05.569Z,50.28
2019-05-13T16:52:34.786Z,50.71
2019-05-13T16:55:03.893Z,50.66
2019-05-13T16:57:33.237Z,50.57
2019-05-13T17:00:02.634Z,50.73
2019-05-13T17:02:33.164Z,50.36
2019-05-13T17:05:02.627Z,50.99
2019-05-13T17:07:32.406Z,50.86
2019-05-13T17:10:03.707Z,50.92
2019-05-13T17:12:33.258Z,51.29
2019-05-13T17:15:02.729Z,51.66
2019-05-13T17:17:33.607Z,51.58
2019-05-13T17:20:02.799Z,51.59
2019-05-13T17:22:32.937Z,52.10
2019-05-13T17:25:02.662Z,51.71
2019-05-13T17:27:33.073Z,52.25
2019-05-13T17:30:03.123Z,51.90
2019-05-13T17:32:33.291Z,51.80
2019-05-13T17:35:02.547Z,51.75
2019-05-13T17:37:32.177Z,58.79
2019-05-13T17:40:02.099Z,53.87
2019-05-13T17:42:32.230Z,52.04
2019-05-13T17:45:02.428Z,52.61
2019-05-13T17:47:33.072Z,52.46
2019-05-13T17:50:02.628Z,52.26
2019-05-13T17:52:31.841Z,52.52
2019-05-13T17:55:01.230Z,52.33
2019-05-13T17:57:32.084Z,52.89
2019-05-13T18:00:01.133Z,53.53
2019-05-13T18:02:31.446Z,52.85
2019-05-13T18:05:02.111Z,53.12
2019-05-13T18:07:32.138Z,53.23
2019-05-13T18:10:01.690Z,53.53
2019-05-13T18:12:32.359Z,53.53
2019-05-13T18:15:02.480Z,53.90
2019-05-13T18:17:31.735Z,54.01
2019-05-13T18:20:02.648Z,53.91
2019-05-13T18:22:31.620Z,54.62
2019-05-13T18:25:02.579Z,54.45
2019-05-13T18:27:32.445Z,54.71
2019-05-13T18:30:02.291Z,54.96
2019-05-13T18:32:32.077Z,55.28
2019-05-13T18:35:01.705Z,55.55
2019-05-13T18:37:33.224Z,55.78
2019-05-13T18:40:02.659Z,55.89
2019-05-13T18:42:33.208Z,56.52
2019-05-13T18:45:02.458Z,56.26
2019-05-13T18:47:32.830Z,56.29
2019-05-13T18:50:02.426Z,56.43
2019-05-13T18:52:31.509Z,56.56
2019-05-13T18:55:02.040Z,56.52
2019-05-13T18:57:33.158Z,56.36
2019-05-13T19:00:02.620Z,56.50
2019-05-13T19:02:32.123Z,56.70
2019-05-13T19:05:01.613Z,57.10
2019-05-13T19:07:31.608Z,56.71
2019-05-13T19:10:02.567Z,57.29
2019-05-13T19:12:31.840Z,56.89
2019-05-13T19:15:02.407Z,57.01
2019-05-13T19:17:32.363Z,56.97
2019-05-13T19:20:01.732Z,56.55
2019-05-13T19:22:34.500Z,56.30
2019-05-13T19:25:04.121Z,56.52
2019-05-13T19:27:33.674Z,56.47
2019-05-13T19:30:02.678Z,56.54
2019-05-13T19:32:32.514Z,56.65
2019-05-13T19:35:02.553Z,56.49
2019-05-13T19:37:32.500Z,56.48
2019-05-13T19:40:01.634Z,56.53
2019-05-13T19:42:31.509Z,56.42
2019-05-13T19:45:01.900Z,56.13
2019-05-13T19:47:32.740Z,56.41
2019-05-13T19:50:03.068Z,56.24
2019-05-13T19:52:33.893Z,56.01
2019-05-13T19:55:03.097Z,56.30
2019-05-13T19:57:33.199Z,55.96
2019-05-13T20:00:02.364Z,55.87
2019-05-13T20:02:32.203Z,55.66
2019-05-13T20:05:01.383Z,55.23
2019-05-13T20:07:31.843Z,55.52
2019-05-13T20:10:02.839Z,55.52
2019-05-13T20:12:32.088Z,55.54
2019-05-13T20:15:01.829Z,55.38
2019-05-13T20:17:32.108Z,55.43
2019-05-13T20:20:02.225Z,55.22
2019-05-13T20:22:33.778Z,55.50
2019-05-13T20:25:03.160Z,55.39
2019-05-13T20:27:34.153Z,55.78
2019-05-13T20:30:03.288Z,55.73
2019-05-13T20:32:32.485Z,56.01
2019-05-13T20:35:02.263Z,55.78
2019-05-13T20:37:32.176Z,56.27
2019-05-13T20:40:02.292Z,56.22
2019-05-13T20:42:31.916Z,56.42
2019-05-13T20:45:02.438Z,56.37
2019-05-13T20:47:33.443Z,56.73
2019-05-13T20:50:04.877Z,56.81
2019-05-13T20:52:33.916Z,56.72
2019-05-13T20:55:03.151Z,56.77
2019-05-13T20:57:32.445Z,56.42
2019-05-13T21:00:02.414Z,56.66
2019-05-13T21:02:32.089Z,56.29
2019-05-13T21:05:01.866Z,55.96
2019-05-13T21:07:32.138Z,56.19
2019-05-13T21:10:05.096Z,56.55
2019-05-13T21:12:35.324Z,56.87
2019-05-13T21:15:04.920Z,57.24
2019-05-13T21:17:33.904Z,57.32
2019-05-13T21:20:18.239Z,57.50
2019-05-13T21:22:34.054Z,57.75
2019-05-13T21:25:03.161Z,58.02
2019-05-13T21:27:32.327Z,58.10
2019-05-13T21:30:01.439Z,58.61
2019-05-13T21:32:30.739Z,58.59
2019-05-13T21:35:01.737Z,58.99
2019-05-13T21:37:31.691Z,59.36
2019-05-13T21:40:01.063Z,59.22
2019-05-13T21:42:32.135Z,59.50
2019-05-13T21:45:01.886Z,59.36
2019-05-13T21:47:31.356Z,59.81
2019-05-13T21:50:02.212Z,60.12
2019-05-13T21:52:32.340Z,60.48
2019-05-13T21:55:01.944Z,60.78
2019-05-13T21:57:34.559Z,60.99
2019-05-13T22:00:08.766Z,61.16
2019-05-13T22:02:40.682Z,61.30
2019-05-13T22:05:11.652Z,61.42
2019-05-13T22:07:42.073Z,61.44
2019-05-13T22:10:11.745Z,61.40
2019-05-13T22:12:43.562Z,61.23
2019-05-13T22:15:18.652Z,61.30
2019-05-13T22:17:51.262Z,60.68
2019-05-13T22:20:21.667Z,60.60
2019-05-13T22:22:52.031Z,60.21
2019-05-13T22:25:21.432Z,60.42
2019-05-13T22:27:51.881Z,60.25
2019-05-13T22:30:21.368Z,60.36
2019-05-13T22:32:52.314Z,60.58
2019-05-13T22:35:22.182Z,60.61
2019-05-13T22:37:51.629Z,60.63
2019-05-13T22:40:21.891Z,60.96
2019-05-13T22:42:56.764Z,60.86
2019-05-13T22:45:23.233Z,61.17
2019-05-13T22:47:52.532Z,61.26
2019-05-13T22:50:21.921Z,61.30
2019-05-13T22:52:51.853Z,61.28
2019-05-13T22:55:21.899Z,61.38
2019-05-13T22:57:51.131Z,61.43
2019-05-13T23:00:22.382Z,61.57
2019-05-13T23:02:52.514Z,61.55
2019-05-13T23:05:22.172Z,61.59
2019-05-13T23:07:52.087Z,61.73
2019-05-13T23:10:22.572Z,61.89
2019-05-13T23:12:52.902Z,62.22
2019-05-13T23:15:22.270Z,62.28
2019-05-13T23:17:52.012Z,62.49
2019-05-13T23:20:21.368Z,62.53
2019-05-13T23:22:51.929Z,62.61
2019-05-13T23:25:21.536Z,62.60
2019-05-13T23:27:51.295Z,62.72
2019-05-13T23:30:21.010Z,62.71
2019-05-13T23:32:51.786Z,62.71
2019-05-13T23:35:21.725Z,62.97
2019-05-13T23:37:51.108Z,62.89
2019-05-13T23:40:20.147Z,63.21
2019-05-13T23:42:51.607Z,63.45
2019-05-13T23:45:21.804Z,63.86
2019-05-13T23:47:52.323Z,64.12
2019-05-13T23:50:21.884Z,64.48
2019-05-13T23:52:51.379Z,64.67
2019-05-13T23:55:22.474Z,64.77
2019-05-13T23:57:52.523Z,64.87
